Los Lunas ASC

Jan. 22, 2020, 4:55 p.m.

  • imperial
Air Temperature RH Dewpoint Wind Chill Heat Index Wind Speed Wind Direction Precipitation Solar Radiation Soil Temperature
Date Time Max Mean Mean Total Total
US/Mountain F % F F F MPH MPH MPH deg. deg. in. MJ/m^2 F
2020-01-21 16:55 40.23 95.3 38.99 40.23 40.23 0.0 0.0 0.0 0.0 0.0 0.0 0.013 41.43
2020-01-21 17:00 40.23 95.3 38.99 40.23 40.23 0.0 0.0 0.0 0.0 0.0 0.0 0.011 41.43
2020-01-21 17:05 40.3 95.6 39.14 40.3 40.3 0.0 0.0 0.0 0.0 0.0 0.0 0.009 41.45
2020-01-21 17:10 40.12 96.1 39.1 40.12 40.12 0.0 0.0 0.0 0.0 0.0 0.0 0.008 41.45
2020-01-21 17:15 40.05 96.2 39.05 40.05 40.05 0.0 0.0 0.0 0.0 0.0 0.0 0.003 41.45
2020-01-21 17:20 40.37 96.5 39.45 40.37 40.37 0.0 0.0 0.0 0.0 0.0 0.0 0.002 41.45
2020-01-21 17:25 40.24 96.7 39.38 40.24 40.24 0.0 0.0 0.0 0.0 0.0 0.0 0.001 41.47
2020-01-21 17:30 40.12 96.7 39.26 40.12 40.12 0.0 0.0 0.0 0.0 0.0 0.0 0.001 41.47
2020-01-21 17:35 39.99 96.8 39.16 39.99 39.99 0.0 0.0 0.0 0.0 0.0 0.0 0.001 41.47
2020-01-21 17:40 39.99 96.9 39.18 39.99 39.99 0.0 0.0 0.0 0.0 0.0 0.0 0.001 41.45
2020-01-21 17:45 39.94 96.9 39.13 39.94 39.94 0.0 0.0 0.0 0.0 0.0 0.0 0.0 41.43
2020-01-21 17:50 39.88 97.2 39.15 39.88 39.88 0.0 0.0 0.0 0.0 0.0 0.0 0.0 41.43
2020-01-21 17:55 39.94 97.3 39.23 39.94 39.94 0.0 0.0 0.0 0.0 0.0 0.0 0.0 41.43
2020-01-21 18:00 39.94 97.3 39.23 39.94 39.94 0.0 0.0 0.0 0.0 0.0 0.0 0.0 41.41
2020-01-21 18:05 39.88 97.4 39.21 39.88 39.88 0.0 0.0 0.0 0.0 0.0 0.0 0.0 41.41
2020-01-21 18:10 39.99 97.5 39.34 39.99 39.99 0.0 0.0 0.0 0.0 0.0 0.0 0.0 41.4
2020-01-21 18:15 39.88 97.6 39.26 39.88 39.88 0.0 0.0 0.0 0.0 0.0 0.0 0.0 41.38
2020-01-21 18:20 39.94 97.7 39.34 39.94 39.94 0.0 0.0 0.0 0.0 0.0 0.0 0.0 41.36
2020-01-21 18:25 40.06 97.8 39.49 40.06 40.06 0.0 0.0 0.0 0.0 0.0 0.0 0.0 41.36
2020-01-21 18:30 40.06 97.7 39.47 40.06 40.06 0.0 0.0 0.0 0.0 0.0 0.0 0.0 41.36
2020-01-21 18:35 39.81 97.7 39.21 39.81 39.81 0.0 0.0 0.0 0.0 0.0 0.0 0.0 41.32
2020-01-21 18:40 39.81 97.7 39.21 39.81 39.81 0.0 0.0 0.0 0.0 0.0 0.0 0.0 41.32
2020-01-21 18:45 39.88 97.8 39.31 39.88 39.88 0.0 0.0 0.0 0.0 0.0 0.0 0.0 41.29
2020-01-21 18:50 39.76 97.8 39.19 39.76 39.76 0.0 0.0 0.0 0.0 0.0 0.0 0.0 41.29
2020-01-21 18:55 39.69 97.8 39.12 39.69 39.69 0.0 0.0 0.0 0.0 0.0 0.0 0.0 41.27
2020-01-21 19:00 39.81 97.8 39.24 39.81 39.81 0.0 0.0 0.0 0.0 0.0 0.0 0.0 41.25
2020-01-21 19:05 39.51 97.8 38.94 39.51 39.51 0.0 0.0 0.0 0.0 0.0 0.0 0.0 41.25
2020-01-21 19:10 39.38 97.7 38.78 39.38 39.38 0.0 0.0 0.0 0.0 0.0 0.0 0.0 41.22
2020-01-21 19:15 39.2 98.0 38.68 39.2 39.2 0.0 0.0 0.0 0.0 0.0 0.0 0.0 41.22
2020-01-21 19:20 39.15 98.1 38.65 39.15 39.15 0.0 0.0 0.0 0.0 0.0 0.0 0.0 41.18
2020-01-21 19:25 39.15 98.4 38.73 39.15 39.15 0.0 0.0 0.0 0.0 0.0 0.0 0.0 41.18
2020-01-21 19:30 39.15 98.5 38.76 39.15 39.15 0.0 0.0 0.0 0.0 0.0 0.0 0.0 41.14
2020-01-21 19:35 39.07 98.7 38.74 39.07 39.07 0.0 0.0 0.0 0.0 0.0 0.0 0.0 41.13
2020-01-21 19:40 38.97 98.6 38.61 38.97 38.97 0.0 0.0 0.0 0.0 0.0 0.0 0.0 41.11
2020-01-21 19:45 38.77 98.7 38.43 38.77 38.77 0.0 0.0 0.0 0.0 0.0 0.0 0.0 41.07
2020-01-21 19:50 38.77 98.7 38.43 38.77 38.77 0.0 0.0 0.0 0.0 0.0 0.0 0.0 41.05
2020-01-21 19:55 38.77 98.7 38.43 38.77 38.77 0.0 0.0 0.0 0.0 0.0 0.0 0.0 41.04
2020-01-21 20:00 38.53 98.7 38.2 38.53 38.53 0.0 0.0 0.0 0.0 0.0 0.0 0.0 41.0
2020-01-21 20:05 38.28 98.8 37.97 38.28 38.28 0.0 0.0 0.0 0.0 0.0 0.0 0.0 40.98
2020-01-21 20:10 38.41 99.0 38.15 38.41 38.41 0.0 0.0 0.0 0.0 0.0 0.0 0.0 40.95
2020-01-21 20:15 38.23 99.0 37.97 38.23 38.23 0.0 0.0 0.0 0.0 0.0 0.0 0.0 40.95
2020-01-21 20:20 38.23 99.1 38.0 38.23 38.23 0.0 0.0 0.0 0.0 0.0 0.0 0.0 40.91
2020-01-21 20:25 37.92 98.8 37.61 37.92 37.92 0.0 0.0 0.0 0.0 0.0 0.0 0.0 40.87
2020-01-21 20:30 37.36 98.8 37.06 37.36 37.36 0.98 2.42 0.78 6.4 41.3 0.0 0.0 40.86
2020-01-21 20:35 37.13 99.6 37.03 37.13 37.13 0.0 1.34 0.27 3.2 35.5 0.0 0.0 40.84
2020-01-21 20:40 37.74 99.7 37.67 37.74 37.74 0.0 2.06 0.51 4.5 33.5 0.0 0.0 40.82
2020-01-21 20:45 37.67 99.7 37.59 37.67 37.67 0.0 0.0 0.0 0.0 0.0 0.0 0.0 40.78
2020-01-21 20:50 37.62 99.7 37.54 37.62 37.62 0.0 0.0 0.0 0.0 0.0 0.0 0.0 40.75
2020-01-21 20:55 37.67 99.9 37.64 37.67 37.67 0.0 0.0 0.0 0.0 0.0 0.0 0.0 40.75
2020-01-21 21:00 37.67 99.7 37.59 37.67 37.67 0.0 0.0 0.0 0.0 0.0 0.0 0.0 40.71
2020-01-21 21:05 37.67 99.8 37.62 37.67 37.67 0.0 0.0 0.0 0.0 0.0 0.0 0.0 40.68
2020-01-21 21:10 37.74 99.9 37.72 37.74 37.74 0.0 0.0 0.0 0.0 0.0 0.0 0.0 40.68
2020-01-21 21:15 37.98 100.0 37.98 37.98 37.98 0.0 0.0 0.0 0.0 0.0 0.0 0.0 40.66
2020-01-21 21:20 37.62 99.9 37.59 37.62 37.62 0.0 0.0 0.0 0.0 0.0 0.0 0.0 40.62
2020-01-21 21:25 37.54 99.8 37.49 37.54 37.54 0.0 0.0 0.0 0.0 0.0 0.0 0.0 40.59
2020-01-21 21:30 37.62 99.8 37.57 37.62 37.62 0.0 0.0 0.0 0.0 0.0 0.0 0.0 40.57
2020-01-21 21:35 37.67 99.9 37.64 37.67 37.67 0.0 0.0 0.0 0.0 0.0 0.0 0.0 40.55
2020-01-21 21:40 37.62 100.0 37.62 37.62 37.62 0.0 0.0 0.0 0.0 0.0 0.0 0.0 40.53
2020-01-21 21:45 37.54 99.9 37.52 37.54 37.54 0.0 0.0 0.0 0.0 0.0 0.0 0.0 40.51
2020-01-21 21:50 37.62 99.9 37.59 37.62 37.62 0.0 0.0 0.0 0.0 0.0 0.0 0.0 40.5
2020-01-21 21:55 37.67 99.9 37.64 37.67 37.67 0.0 0.0 0.0 0.0 0.0 0.0 0.0 40.48
2020-01-21 22:00 37.85 99.9 37.82 37.85 37.85 0.0 0.0 0.0 0.0 0.0 0.0 0.0 40.44
2020-01-21 22:05 37.85 99.9 37.82 37.85 37.85 0.0 0.0 0.0 0.0 0.0 0.0 0.0 40.44
2020-01-21 22:10 37.67 99.9 37.64 37.67 37.67 0.0 0.0 0.0 0.0 0.0 0.0 0.0 40.41
2020-01-21 22:15 37.49 99.9 37.46 37.49 37.49 0.0 0.0 0.0 0.0 0.0 0.0 0.0 40.41
2020-01-21 22:20 37.49 100.0 37.49 37.49 37.49 0.0 0.0 0.0 0.0 0.0 0.0 0.0 40.37
2020-01-21 22:25 37.44 99.9 37.41 37.44 37.44 0.0 1.34 0.47 2.0 225.1 0.0 0.0 40.35
2020-01-21 22:30 37.44 99.8 37.39 37.44 37.44 0.98 0.98 0.07 0.2 46.0 0.0 0.0 40.33
2020-01-21 22:35 36.81 99.5 36.68 36.81 36.81 0.0 2.42 1.5 3.1 47.8 0.0 0.0 40.3
2020-01-21 22:40 36.7 100.0 36.7 36.7 36.7 0.0 0.0 0.0 0.0 0.0 0.0 0.0 40.3
2020-01-21 22:45 36.75 99.9 36.73 36.75 36.75 0.0 0.0 0.0 0.0 0.0 0.0 0.0 40.26
2020-01-21 22:50 36.82 99.9 36.8 36.82 36.82 0.0 0.0 0.0 0.0 0.0 0.0 0.0 40.26
2020-01-21 22:55 37.06 99.9 37.03 37.06 37.06 0.0 0.0 0.0 0.0 0.0 0.0 0.0 40.23
2020-01-21 23:00 37.26 100.0 37.26 37.26 37.26 0.0 0.0 0.0 0.0 0.0 0.0 0.0 40.21
2020-01-21 23:05 37.31 100.0 37.31 37.31 37.31 0.0 0.0 0.0 0.0 0.0 0.0 0.0 40.19
2020-01-21 23:10 37.44 100.0 37.44 37.44 37.44 0.0 1.16 0.25 0.4 194.3 0.0 0.0 40.19
2020-01-21 23:15 37.56 100.0 37.56 37.56 37.56 0.98 1.34 0.25 2.6 173.4 0.0 0.0 40.17
2020-01-21 23:20 37.31 100.0 37.31 37.31 37.31 0.0 1.16 0.22 28.1 153.3 0.0 0.0 40.15
2020-01-21 23:25 37.56 100.0 37.56 37.56 37.56 0.0 0.0 0.0 0.0 0.0 0.0 0.0 40.14
2020-01-21 23:30 37.56 100.0 37.56 37.56 37.56 0.0 0.0 0.0 0.0 0.0 0.0 0.0 40.14
2020-01-21 23:35 37.38 99.9 37.36 37.38 37.38 0.0 0.0 0.0 0.0 0.0 0.0 0.0 40.1
2020-01-21 23:40 37.18 99.9 37.16 37.18 37.18 0.0 1.34 0.27 3.9 23.9 0.0 0.0 40.08
2020-01-21 23:45 37.0 99.9 36.98 37.0 37.0 0.0 1.52 0.36 5.8 42.5 0.0 0.0 40.06
2020-01-21 23:50 36.95 99.9 36.92 36.95 36.95 0.0 0.0 0.0 0.0 0.0 0.0 0.0 40.05
2020-01-21 23:55 36.52 99.9 36.49 36.52 36.52 0.0 2.06 1.52 2.5 211.9 0.0 0.0 40.03
2020-01-22 00:00 36.57 100.0 36.57 36.57 36.57 0.81 0.81 0.09 1.5 5.0 0.0 0.0 40.01
2020-01-22 00:05 36.46 99.9 36.44 36.46 36.46 0.0 0.81 0.09 1.2 3.6 0.0 0.0 39.99
2020-01-22 00:10 36.39 99.9 36.37 36.39 36.39 0.0 0.81 0.09 0.5 283.8 0.0 0.0 39.96
2020-01-22 00:15 36.46 100.0 36.46 36.46 36.46 0.0 0.0 0.0 0.0 0.0 0.0 0.0 39.94
2020-01-22 00:20 36.09 99.9 36.06 36.09 36.09 0.0 1.52 1.05 11.1 222.7 0.0 0.0 39.92
2020-01-22 00:25 35.85 99.9 35.83 35.85 35.85 0.0 0.81 0.04 0.1 237.4 0.0 0.0 39.88
2020-01-22 00:30 35.98 99.9 35.95 35.98 35.98 0.0 0.0 0.0 0.0 0.0 0.0 0.0 39.85
2020-01-22 00:35 35.8 99.9 35.77 35.8 35.8 0.0 0.0 0.0 0.0 0.0 0.0 0.0 39.81
2020-01-22 00:40 35.67 99.9 35.65 35.67 35.67 0.0 0.0 0.0 0.0 0.0 0.0 0.0 39.79
2020-01-22 00:45 35.67 99.9 35.65 35.67 35.67 0.0 0.0 0.0 0.0 0.0 0.0 0.0 39.78
2020-01-22 00:50 35.85 99.6 35.75 35.85 35.85 1.52 1.52 0.13 1.1 44.5 0.0 0.0 39.76
2020-01-22 00:55 34.83 99.8 34.78 34.83 34.83 0.0 1.52 0.74 9.5 51.6 0.0 0.0 39.72
2020-01-22 01:00 34.57 99.9 34.55 34.57 34.57 0.0 0.0 0.0 0.0 0.0 0.0 0.0 39.69
2020-01-22 01:05 34.39 99.9 34.37 34.39 34.39 0.0 0.98 0.09 0.8 66.8 0.0 0.0 39.65
2020-01-22 01:10 34.52 99.9 34.49 34.52 34.52 0.0 0.0 0.0 0.0 0.0 0.0 0.0 39.61
2020-01-22 01:15 34.63 99.9 34.6 34.63 34.63 0.0 0.0 0.0 0.0 0.0 0.0 0.0 39.58
2020-01-22 01:20 34.45 99.8 34.4 34.45 34.45 2.24 3.13 0.94 4.3 31.3 0.0 0.0 39.58
2020-01-22 01:25 34.63 99.9 34.6 34.63 34.63 1.34 2.24 1.03 10.0 34.7 0.0 0.0 39.56
2020-01-22 01:30 35.19 99.9 35.16 35.19 35.19 0.0 2.24 1.21 10.8 25.5 0.0 0.0 39.51
2020-01-22 01:35 35.24 100.0 35.24 35.24 35.24 1.7 1.88 1.07 11.2 20.1 0.0 0.0 39.47
2020-01-22 01:40 35.87 99.9 35.84 35.87 35.87 2.06 2.77 2.1 8.8 33.7 0.0 0.0 39.45
2020-01-22 01:45 35.74 99.8 35.69 35.74 35.74 1.7 2.59 1.92 15.3 26.2 0.0 0.0 39.42
2020-01-22 01:50 35.62 99.9 35.59 32.58 35.62 3.67 3.67 2.24 15.6 25.0 0.0 0.0 39.4
2020-01-22 01:55 36.16 99.8 36.11 36.16 36.16 2.77 3.49 2.89 14.0 14.5 0.0 0.0 39.34
2020-01-22 02:00 36.23 100.0 36.23 36.23 36.23 2.77 4.21 3.13 10.1 32.3 0.0 0.0 39.33
2020-01-22 02:05 36.05 99.9 36.02 36.05 36.05 1.52 2.77 2.26 6.0 38.6 0.0 0.0 39.29
2020-01-22 02:10 35.55 99.9 35.52 35.55 35.55 0.81 1.52 0.81 7.7 29.6 0.0 0.0 39.25
2020-01-22 02:15 35.87 99.9 35.84 35.87 35.87 0.81 2.24 0.92 16.1 23.3 0.0 0.0 39.22
2020-01-22 02:20 36.41 99.9 36.38 36.41 36.41 2.06 2.42 1.16 7.2 34.4 0.0 0.0 39.18
2020-01-22 02:25 36.46 99.9 36.44 36.46 36.46 1.16 2.42 1.52 15.8 25.1 0.0 0.0 39.15
2020-01-22 02:30 36.59 99.9 36.56 36.59 36.59 2.24 2.95 1.68 20.4 8.2 0.0 0.0 39.13
2020-01-22 02:35 36.66 99.9 36.64 36.66 36.66 2.42 2.95 2.15 21.6 16.2 0.0 0.0 39.09
2020-01-22 02:40 36.59 99.9 36.56 36.59 36.59 1.34 3.31 2.37 16.8 22.1 0.0 0.0 39.06
2020-01-22 02:45 36.84 99.9 36.82 36.84 36.84 0.81 2.77 1.83 12.4 22.3 0.0 0.0 39.04
2020-01-22 02:50 37.02 100.0 37.02 37.02 37.02 0.81 1.88 1.1 27.8 19.5 0.0 0.0 39.02
2020-01-22 02:55 36.72 99.9 36.69 36.72 36.72 0.0 3.13 1.61 36.5 41.7 0.0 0.0 39.02
2020-01-22 03:00 36.95 100.0 36.95 36.95 36.95 1.7 2.42 1.01 17.3 14.3 0.0 0.0 38.98
2020-01-22 03:05 36.72 99.9 36.69 36.72 36.72 0.0 2.77 1.68 19.6 16.5 0.0 0.0 38.98
2020-01-22 03:10 36.82 99.9 36.8 36.82 36.82 0.0 1.52 0.2 6.5 13.1 0.0 0.0 38.98
2020-01-22 03:15 36.77 99.9 36.74 36.77 36.77 2.06 2.42 1.52 15.4 26.3 0.0 0.0 38.97
2020-01-22 03:20 37.0 100.0 37.0 37.0 37.0 1.34 2.42 1.7 18.4 17.6 0.0 0.0 38.95
2020-01-22 03:25 36.9 100.0 36.9 36.9 36.9 0.0 1.7 0.81 16.9 348.7 0.0 0.0 38.95
2020-01-22 03:30 36.77 99.9 36.74 36.77 36.77 1.16 2.95 1.63 23.1 11.2 0.0 0.0 38.95
2020-01-22 03:35 36.64 99.9 36.62 36.64 36.64 1.7 2.42 1.59 23.8 15.1 0.0 0.0 38.95
2020-01-22 03:40 36.7 100.0 36.7 36.7 36.7 2.42 3.13 2.24 15.2 13.1 0.0 0.0 38.95
2020-01-22 03:45 36.64 100.0 36.64 36.64 36.64 1.88 3.31 2.21 22.6 12.5 0.0 0.0 38.95
2020-01-22 03:50 36.27 99.9 36.24 36.27 36.27 0.98 2.77 1.88 15.0 20.0 0.0 0.0 38.95
2020-01-22 03:55 36.34 100.0 36.34 36.34 36.34 0.0 2.42 0.6 11.4 10.9 0.0 0.0 38.95
2020-01-22 04:00 36.21 100.0 36.21 36.21 36.21 0.0 0.0 0.0 0.0 0.0 0.0 0.0 38.95
2020-01-22 04:05 36.03 99.9 36.01 36.03 36.03 1.52 1.88 0.92 16.9 16.4 0.0 0.0 38.95
2020-01-22 04:10 36.03 100.0 36.03 32.0 36.03 4.74 5.64 3.65 8.6 29.4 0.0 0.0 38.95
2020-01-22 04:15 35.91 100.0 35.91 35.91 35.91 2.24 5.28 3.85 11.8 28.4 0.0 0.0 38.95
2020-01-22 04:20 35.6 99.9 35.57 32.97 35.6 3.31 4.74 2.98 21.6 21.1 0.0 0.0 38.95
2020-01-22 04:25 35.55 99.9 35.52 32.3 35.55 3.85 4.56 3.15 19.0 21.2 0.0 0.0 38.95
2020-01-22 04:30 35.6 99.9 35.57 35.6 35.6 2.95 3.31 2.51 17.6 19.9 0.0 0.0 38.95
2020-01-22 04:35 35.73 99.9 35.7 35.73 35.73 2.24 4.56 2.89 13.8 27.4 0.0 0.0 38.95
2020-01-22 04:40 35.73 99.9 35.7 33.33 35.73 3.13 3.13 2.35 11.3 19.1 0.0 0.0 38.93
2020-01-22 04:45 35.55 99.9 35.52 31.44 35.55 4.74 4.74 2.8 17.4 22.3 0.0 0.0 38.93
2020-01-22 04:50 35.67 99.9 35.65 35.67 35.67 2.24 4.56 2.17 36.7 355.0 0.0 0.0 38.91
2020-01-22 04:55 35.91 99.9 35.88 35.91 35.91 2.77 3.13 2.35 18.0 22.4 0.0 0.0 38.91
2020-01-22 05:00 36.21 100.0 36.21 36.21 36.21 1.7 2.77 1.63 37.5 335.1 0.0 0.0 38.91
2020-01-22 05:05 36.59 99.9 36.56 33.7 36.59 3.67 5.46 3.83 20.5 12.9 0.0 0.0 38.91
2020-01-22 05:10 37.26 100.0 37.26 33.75 37.26 4.38 5.28 3.94 18.1 28.2 0.0 0.0 38.89
2020-01-22 05:15 37.26 99.9 37.23 37.26 37.26 2.06 5.46 3.31 26.9 12.1 0.0 0.0 38.89
2020-01-22 05:20 37.38 99.9 37.36 37.38 37.38 2.77 4.38 3.24 18.2 32.6 0.0 0.0 38.89
2020-01-22 05:25 37.74 100.0 37.74 35.02 37.74 3.67 4.56 3.4 15.5 35.6 0.0 0.0 38.89
2020-01-22 05:30 37.56 99.9 37.54 37.56 37.56 1.34 3.85 2.13 27.8 3.2 0.0 0.0 38.88
2020-01-22 05:35 37.56 99.9 37.54 37.56 37.56 2.77 3.49 2.39 23.0 23.1 0.0 0.0 38.88
2020-01-22 05:40 37.49 99.9 37.46 37.49 37.49 2.42 3.31 2.62 13.4 31.5 0.0 0.0 38.88
2020-01-22 05:45 37.62 100.0 37.62 37.62 37.62 0.0 2.59 1.66 18.0 27.9 0.0 0.0 38.88
2020-01-22 05:50 37.54 99.9 37.52 37.54 37.54 2.42 2.42 1.19 10.3 45.5 0.0 0.0 38.88
2020-01-22 05:55 37.44 99.9 37.41 37.44 37.44 1.88 2.95 2.13 12.5 46.3 0.0 0.0 38.88
2020-01-22 06:00 37.24 99.9 37.21 37.24 37.24 1.88 2.95 2.01 11.6 27.9 0.0 0.0 38.89
2020-01-22 06:05 37.36 100.0 37.36 37.36 37.36 2.24 2.95 1.86 12.7 41.4 0.0 0.0 38.89
2020-01-22 06:10 37.18 99.9 37.16 37.18 37.18 0.0 2.42 0.67 5.0 58.0 0.0 0.0 38.89
2020-01-22 06:15 37.13 99.9 37.1 37.13 37.13 0.0 1.52 0.45 7.3 353.9 0.0 0.0 38.89
2020-01-22 06:20 37.31 99.9 37.28 37.31 37.31 0.0 0.0 0.0 0.0 0.0 0.0 0.0 38.89
2020-01-22 06:25 37.13 99.9 37.1 37.13 37.13 0.98 2.24 1.1 18.9 45.7 0.0 0.0 38.88
2020-01-22 06:30 36.82 100.0 36.82 36.82 36.82 0.0 1.16 0.38 2.2 44.7 0.0 0.0 38.88
2020-01-22 06:35 36.7 99.9 36.67 36.7 36.7 0.0 0.0 0.0 0.0 0.0 0.0 0.0 38.88
2020-01-22 06:40 36.93 99.9 36.91 36.93 36.93 0.0 0.81 0.02 0.0 24.8 0.0 0.0 38.88
2020-01-22 06:45 37.06 100.0 37.06 37.06 37.06 0.0 0.0 0.0 0.0 0.0 0.0 0.0 38.88
2020-01-22 06:50 36.82 99.9 36.8 36.82 36.82 0.0 0.0 0.0 0.0 0.0 0.0 0.0 38.88
2020-01-22 06:55 36.95 100.0 36.95 36.95 36.95 0.0 0.0 0.0 0.0 0.0 0.0 0.0 38.88
2020-01-22 07:00 36.63 99.9 36.6 36.63 36.63 0.0 0.0 0.0 0.0 0.0 0.0 0.001 38.88
2020-01-22 07:05 36.64 99.9 36.62 36.64 36.64 0.0 0.0 0.0 0.0 0.0 0.0 0.001 38.86
2020-01-22 07:10 36.82 100.0 36.82 36.82 36.82 0.81 0.81 0.11 0.7 175.4 0.0 0.001 38.84
2020-01-22 07:15 36.52 99.9 36.49 36.52 36.52 2.59 2.77 2.08 12.5 198.5 0.0 0.009 38.84
2020-01-22 07:20 36.64 100.0 36.64 36.64 36.64 2.42 2.95 2.46 10.1 199.4 0.0 0.013 38.84
2020-01-22 07:25 36.52 99.9 36.49 36.52 36.52 1.7 2.42 1.86 17.5 207.2 0.0 0.014 38.82
2020-01-22 07:30 36.52 99.9 36.49 36.52 36.52 2.06 2.24 1.9 9.0 212.1 0.0 0.013 38.82
2020-01-22 07:35 36.34 99.9 36.31 36.34 36.34 1.7 2.59 1.05 5.8 212.8 0.0 0.012 38.8
2020-01-22 07:40 36.34 100.0 36.34 36.34 36.34 0.0 1.52 0.22 4.0 197.9 0.0 0.014 38.8
2020-01-22 07:45 36.03 99.9 36.01 36.03 36.03 0.81 0.98 0.11 19.4 73.4 0.0 0.016 38.8
2020-01-22 07:50 35.47 99.9 35.45 35.47 35.47 0.0 1.52 0.25 1.8 63.5 0.0 0.02 38.8
2020-01-22 07:55 35.49 99.9 35.47 35.49 35.49 0.0 0.0 0.0 0.0 0.0 0.0 0.019 38.77
2020-01-22 08:00 35.6 99.9 35.57 35.6 35.6 0.0 0.0 0.0 0.0 0.0 0.0 0.018 38.79
2020-01-22 08:05 35.74 99.9 35.72 35.74 35.74 0.0 0.81 0.04 4.3 40.8 0.0 0.051 38.75
2020-01-22 08:10 35.92 99.9 35.9 35.92 35.92 0.81 1.52 0.34 12.0 158.2 0.0 0.054 38.75
2020-01-22 08:15 36.36 100.0 36.36 36.36 36.36 0.0 1.88 0.51 11.2 60.6 0.0 0.086 38.71
2020-01-22 08:20 36.46 99.9 36.44 36.46 36.46 1.34 1.34 0.49 45.7 236.5 0.0 0.125 38.71
2020-01-22 08:25 36.72 100.0 36.72 36.72 36.72 2.06 2.06 0.89 67.8 352.5 0.0 0.127 38.7
2020-01-22 08:30 37.02 100.0 37.02 37.02 37.02 1.16 1.52 0.22 2.3 46.8 0.0 0.071 38.68
2020-01-22 08:35 36.64 99.9 36.62 36.64 36.64 1.34 3.85 2.21 22.4 57.3 0.0 0.081 38.68
2020-01-22 08:40 36.9 99.9 36.87 36.9 36.9 0.98 1.52 0.51 39.3 118.3 0.0 0.104 38.68
2020-01-22 08:45 37.13 99.9 37.1 37.13 37.13 2.42 3.13 1.72 23.7 57.9 0.0 0.15 38.68
2020-01-22 08:50 37.08 99.9 37.05 34.65 37.08 3.31 4.56 2.73 16.9 56.6 0.0 0.116 38.68
2020-01-22 08:55 37.69 100.0 37.69 37.69 37.69 2.42 3.85 1.83 15.7 56.2 0.0 0.123 38.7
2020-01-22 09:00 37.26 99.9 37.23 37.26 37.26 1.7 4.03 2.73 13.2 45.0 0.0 0.049 38.73
2020-01-22 09:05 37.18 99.9 37.16 37.18 37.18 0.98 2.06 1.45 32.7 64.3 0.0 0.166 38.73
2020-01-22 09:10 37.67 99.9 37.64 37.67 37.67 2.42 3.31 1.92 17.7 59.5 0.0 0.24 38.79
2020-01-22 09:15 38.23 99.9 38.2 38.23 38.23 2.95 3.49 1.86 22.7 53.4 0.0 0.249 38.84
2020-01-22 09:20 38.28 99.9 38.26 36.03 38.28 3.31 3.85 2.46 23.9 45.9 0.0 0.17 38.88
2020-01-22 09:25 38.71 99.9 38.69 38.71 38.71 2.95 3.31 1.52 15.9 69.1 0.0 0.269 38.91
2020-01-22 09:30 38.71 99.9 38.69 36.14 38.71 3.67 4.92 3.38 16.6 54.8 0.0 0.248 38.97
2020-01-22 09:35 40.12 99.9 40.09 36.37 40.12 5.28 5.28 4.21 9.5 52.2 0.0 0.344 39.02
2020-01-22 09:40 40.12 99.9 40.09 37.4 40.12 4.03 5.64 4.63 9.7 45.4 0.0 0.357 39.09
2020-01-22 09:45 40.91 99.9 40.88 38.48 40.91 3.85 5.28 4.34 13.4 32.4 0.0 0.367 39.16
2020-01-22 09:50 41.7 92.9 39.8 37.65 41.7 6.17 8.3 6.08 13.3 44.1 0.0 0.379 39.24
2020-01-22 09:55 42.62 84.8 38.37 38.85 42.62 6.0 7.43 6.31 8.3 54.5 0.0 0.393 39.33
2020-01-22 10:00 43.29 81.8 38.1 39.23 43.29 6.71 9.91 6.69 8.9 46.3 0.0 0.401 39.4
2020-01-22 10:05 43.59 82.4 38.59 39.6 43.59 6.71 8.12 6.53 9.2 46.9 0.0 0.411 39.51
2020-01-22 10:10 43.95 79.71 38.09 39.84 43.95 7.07 10.27 7.4 8.8 49.7 0.0 0.423 39.61
2020-01-22 10:15 44.31 76.77 37.48 40.56 44.31 6.53 9.04 7.54 14.9 39.9 0.0 0.435 39.72
2020-01-22 10:20 44.6 73.7 36.72 40.71 44.6 6.89 8.48 7.4 12.4 38.3 0.0 0.446 39.83
2020-01-22 10:25 44.98 74.38 37.32 40.9 44.98 7.43 8.68 7.14 8.9 44.8 0.0 0.456 39.96
2020-01-22 10:30 44.91 74.41 37.26 40.81 44.91 7.43 9.57 7.25 10.1 45.0 0.0 0.468 40.06
2020-01-22 10:35 45.64 69.24 36.15 41.53 45.64 7.78 8.86 7.0 14.3 50.7 0.0 0.482 40.21
2020-01-22 10:40 45.7 65.64 34.85 42.13 45.7 6.71 9.22 7.11 8.6 37.9 0.0 0.492 40.33
2020-01-22 10:45 45.45 69.0 35.87 41.73 45.45 6.89 8.86 6.67 8.7 44.1 0.0 0.498 40.48
2020-01-22 10:50 46.26 69.54 36.84 43.09 46.26 6.17 7.43 4.56 13.3 61.8 0.0 0.512 40.6
2020-01-22 10:55 45.88 70.32 36.76 45.88 45.88 1.7 9.57 6.13 22.5 57.6 0.0 0.51 40.75
2020-01-22 11:00 46.24 68.41 36.41 42.03 46.24 8.3 9.73 6.69 14.2 40.6 0.0 0.513 40.87
2020-01-22 11:05 46.47 63.99 34.95 43.34 46.47 6.17 9.04 6.42 10.4 46.9 0.0 0.514 41.02
2020-01-22 11:10 46.04 67.52 35.89 41.55 46.04 8.86 10.45 7.58 11.7 47.5 0.0 0.52 41.14
2020-01-22 11:15 46.78 63.71 35.13 43.81 46.78 6.0 10.09 7.58 20.1 36.2 0.0 0.529 41.31
2020-01-22 11:20 46.9 66.33 36.26 43.67 46.9 6.53 7.61 5.17 15.7 58.5 0.0 0.538 41.45
2020-01-22 11:25 47.39 63.16 35.49 43.07 47.39 9.22 9.73 5.15 17.5 61.4 0.0 0.57 41.61
2020-01-22 11:30 48.24 59.32 34.71 45.27 48.24 6.53 13.67 7.34 18.2 29.0 0.0 0.676 41.76
2020-01-22 11:35 48.96 55.61 33.77 46.8 48.96 5.28 8.3 5.17 29.1 13.7 0.0 0.594 41.9
2020-01-22 11:40 49.39 54.01 33.44 49.39 49.39 2.77 5.82 2.57 47.6 335.5 0.0 0.569 42.08
2020-01-22 11:45 48.24 59.38 34.73 45.55 48.24 6.0 7.78 5.19 16.9 43.5 0.0 0.569 42.24
2020-01-22 11:50 48.42 57.31 34.01 45.14 48.42 7.25 10.09 6.93 13.9 45.4 0.0 0.604 42.4
2020-01-22 11:55 48.22 59.34 34.7 46.15 48.22 4.92 7.25 5.66 9.9 48.8 0.0 0.529 42.57
2020-01-22 12:00 48.65 61.11 35.85 44.9 48.65 8.48 9.04 5.44 11.5 42.2 0.0 0.619 42.73
2020-01-22 12:05 48.94 53.36 32.72 47.0 48.94 4.92 9.22 6.15 17.5 28.4 0.0 0.554 42.89
2020-01-22 12:10 48.76 53.59 32.66 48.13 48.76 3.13 9.04 5.95 8.6 53.3 0.0 0.158 43.05
2020-01-22 12:15 48.4 52.13 31.64 46.25 48.4 5.1 7.25 3.2 21.1 62.1 0.0 0.259 43.2
2020-01-22 12:20 49.24 53.83 33.22 47.83 49.24 4.21 7.43 4.74 19.7 28.1 0.0 0.257 43.34
2020-01-22 12:25 49.68 52.17 32.84 49.01 49.68 3.31 7.61 4.76 25.2 31.7 0.0 0.35 43.5
2020-01-22 12:30 49.68 53.56 33.5 47.08 49.68 6.35 6.35 4.63 19.0 28.8 0.0 0.253 43.65
2020-01-22 12:35 49.5 52.78 32.96 46.53 49.5 7.07 10.27 6.87 7.8 45.8 0.0 0.779 43.74
2020-01-22 12:40 50.36 50.6 32.71 50.36 50.36 7.96 8.3 6.15 12.8 57.9 0.0 0.676 43.86
2020-01-22 12:45 49.19 57.33 34.75 46.5 49.19 6.35 10.45 7.99 9.0 49.3 0.0 0.221 44.01
2020-01-22 12:50 48.09 57.13 33.63 45.47 48.09 5.82 12.24 7.31 9.1 54.2 0.0 0.31 44.13
2020-01-22 12:55 47.97 57.6 33.72 45.74 47.97 5.1 9.22 6.53 10.9 53.1 0.0 0.189 44.26
2020-01-22 13:00 47.61 55.33 32.38 45.67 47.61 4.56 8.86 6.6 7.8 48.0 0.0 0.173 44.4
2020-01-22 13:05 47.61 53.53 31.56 47.61 47.61 2.95 6.35 4.07 15.4 48.6 0.0 0.319 44.53
2020-01-22 13:10 48.4 50.5 30.85 47.11 48.4 3.85 7.07 4.68 20.9 35.2 0.0 0.73 44.62
2020-01-22 13:15 50.59 54.38 34.73 50.59 50.59 6.17 7.61 4.9 18.6 58.5 0.0 0.72 44.76
2020-01-22 13:20 50.85 48.33 32.02 50.85 50.85 4.21 9.73 6.73 20.8 35.6 0.0 0.683 44.85
2020-01-22 13:25 51.28 47.38 31.92 51.28 51.28 4.56 6.17 3.6 35.5 47.4 0.0 0.237 44.94
2020-01-22 13:30 51.03 49.55 32.81 51.03 51.03 3.85 9.4 4.45 17.4 61.5 0.0 0.623 45.05
2020-01-22 13:35 50.54 49.35 32.26 50.54 50.54 7.07 10.63 5.55 14.0 43.4 0.0 0.124 45.12
2020-01-22 13:40 50.36 49.82 32.33 50.36 50.36 5.82 10.09 7.23 10.7 44.4 0.0 0.083 45.23
2020-01-22 13:45 49.19 51.72 32.17 47.08 49.19 5.28 9.73 5.59 12.8 51.6 0.0 0.079 45.36
2020-01-22 13:50 49.44 52.57 32.81 46.71 49.44 6.53 7.43 4.41 12.8 50.6 0.0 0.068 45.48
2020-01-22 13:55 51.64 41.97 29.26 51.64 51.64 4.74 14.03 8.25 36.3 29.3 0.0 0.508 45.59
2020-01-22 14:00 51.94 41.16 29.06 51.94 51.94 3.13 9.73 5.59 44.7 354.4 0.0 0.503 45.68
2020-01-22 14:05 52.48 40.85 29.36 52.48 52.48 7.07 8.48 5.64 28.7 11.2 0.0 0.488 45.79
2020-01-22 14:10 52.79 40.58 29.48 52.79 52.79 6.35 8.12 5.53 33.4 0.7 0.0 0.477 45.88
2020-01-22 14:15 54.09 38.47 29.33 54.09 54.09 6.71 7.07 3.87 48.2 330.9 0.0 0.468 45.95
2020-01-22 14:20 53.91 39.08 29.55 53.91 53.91 4.03 8.48 4.56 45.1 346.6 0.0 0.461 46.04
2020-01-22 14:25 53.65 37.79 28.51 53.65 53.65 5.64 8.86 5.53 23.3 14.7 0.0 0.452 46.13
2020-01-22 14:30 54.01 38.95 29.57 54.01 54.01 6.53 10.09 5.41 30.8 18.1 0.0 0.441 46.18
2020-01-22 14:35 53.35 41.63 30.61 53.35 53.35 6.35 8.86 6.6 16.6 25.8 0.0 0.429 46.27
2020-01-22 14:40 53.17 43.33 31.43 53.17 53.17 4.74 9.4 5.66 26.8 18.7 0.0 0.418 46.36
2020-01-22 14:45 52.56 43.77 31.13 52.56 52.56 9.73 10.63 8.55 15.8 33.8 0.0 0.403 46.44
2020-01-22 14:50 51.62 46.59 31.82 51.62 51.62 9.73 12.42 9.6 16.0 43.2 0.0 0.391 46.53
2020-01-22 14:55 51.26 47.84 32.15 51.26 51.26 10.27 10.98 7.49 14.8 58.9 0.0 0.378 46.6
2020-01-22 15:00 51.57 46.52 31.73 51.57 51.57 9.57 12.24 9.51 10.8 42.0 0.0 0.368 46.67
2020-01-22 15:05 51.75 45.26 31.22 51.75 51.75 10.45 12.77 9.37 14.4 38.6 0.0 0.357 46.72
2020-01-22 15:10 51.13 45.71 30.9 51.13 51.13 10.63 12.95 11.16 10.1 44.7 0.0 0.344 46.78
2020-01-22 15:15 51.82 45.06 31.17 51.82 51.82 12.24 12.59 9.71 8.3 45.9 0.0 0.332 46.85
2020-01-22 15:20 51.76 44.11 30.6 51.76 51.76 6.71 12.06 9.87 16.5 41.7 0.0 0.32 46.89
2020-01-22 15:25 52.12 44.72 31.27 52.12 52.12 7.96 12.42 8.86 11.4 40.4 0.0 0.307 46.92
2020-01-22 15:30 52.25 44.76 31.4 52.25 52.25 8.86 9.57 8.19 10.4 38.6 0.0 0.294 46.96
2020-01-22 15:35 51.94 43.57 30.46 51.94 51.94 8.86 12.06 8.08 14.1 30.2 0.0 0.281 46.99
2020-01-22 15:40 51.76 44.69 30.92 51.76 51.76 10.09 12.42 9.13 23.3 22.6 0.0 0.267 47.03
2020-01-22 15:45 51.39 45.64 31.1 51.39 51.39 9.91 11.88 9.31 19.8 33.1 0.0 0.253 47.05
2020-01-22 15:50 51.03 45.88 30.9 51.03 51.03 6.53 12.42 10.11 18.8 29.9 0.0 0.24 47.07
2020-01-22 15:55 51.33 45.84 31.15 51.33 51.33 6.35 11.7 8.05 16.1 34.2 0.0 0.227 47.08
2020-01-22 16:00 51.03 45.95 30.93 51.03 51.03 7.43 12.77 8.61 15.2 29.4 0.0 0.214 47.1
2020-01-22 16:05 50.97 45.81 30.81 50.97 50.97 9.4 11.7 9.02 13.9 32.4 0.0 0.2 47.12
2020-01-22 16:10 50.54 46.69 30.88 50.54 50.54 10.8 11.88 9.1 13.6 35.1 0.0 0.187 47.14
2020-01-22 16:15 50.54 46.12 30.58 50.54 50.54 9.4 12.42 9.17 19.3 29.7 0.0 0.174 47.12
2020-01-22 16:20 50.54 46.15 30.6 50.54 50.54 6.53 11.7 8.77 13.6 25.4 0.0 0.16 47.12
2020-01-22 16:25 50.59 46.19 30.67 50.59 50.59 7.25 11.7 8.63 16.1 24.8 0.0 0.141 47.14
2020-01-22 16:30 50.36 46.02 30.36 50.36 50.36 6.71 13.13 8.34 23.7 21.1 0.0 0.021 47.14
2020-01-22 16:35 50.59 42.38 28.55 50.59 50.59 7.78 9.91 7.74 18.3 22.5 0.0 0.063 47.12
2020-01-22 16:40 50.72 40.99 27.85 50.72 50.72 6.53 10.8 7.31 32.4 23.9 0.0 0.105 47.1
2020-01-22 16:45 50.67 41.56 28.14 50.67 50.67 9.22 10.63 7.05 24.1 14.6 0.0 0.088 47.08
2020-01-22 16:50 49.8 42.62 27.97 46.1 49.8 9.04 12.77 8.97 19.0 18.9 0.0 0.014 47.07
2020-01-22 16:55 48.94 44.04 27.99 46.58 48.94 5.64 10.8 7.31 23.2 24.2 0.0 0.014 47.03

Data is courtesy of the NM Climate Center. DO NOT USE IN LEGAL PROCEEDINGS.